Fairmount City, Pennsylvania
Current Conditions -  °F | °C
As of 10:53 PM on Wednesday 22 Oct 2014 (Local Time) from KDUJ Reporting Station
Overcast Overcast  
Wind Chill: 36°   Ceiling: 1000
Heat Index: 43°   Visibility: 10mi
Dew Point: 39°   Wind: 13mph
Humidity: 86%   Direction: 350°N
Pressure: 30.11"   Gusts: NA
Location:  41.01°N, 79.32°W
Report Text: KDUJ 230253Z AUTO 35011KT 10SM OVC010 06/04 A3011 RMK AO2 SLP205 T00610039 58004
Loading
Personal Weather Stations






























Interactive Weather Map New forecast layout! Learn more

10-Day Weather Forecast

Advertisements
Track Severe Weather on mobile